sensor_id;sensor_type;location;lat;lon;timestamp;P1;P2;P0
67376;PMS7003;54261;46.086;6.588;2024-03-07T00:03:37;1.00;1.00;1.00
67376;PMS7003;54261;46.086;6.588;2024-03-07T00:08:40;1.75;1.75;0.50
67376;PMS7003;54261;46.086;6.588;2024-03-07T00:13:42;1.00;1.00;1.00
67376;PMS7003;54261;46.086;6.588;2024-03-07T00:18:44;2.00;2.00;1.00
67376;PMS7003;54261;46.086;6.588;2024-03-07T00:23:46;3.75;2.50;2.00
67376;PMS7003;54261;46.086;6.588;2024-03-07T00:28:48;4.00;2.00;2.00
67376;PMS7003;54261;46.086;6.588;2024-03-07T00:33:49;1.00;1.00;0.50
67376;PMS7003;54261;46.086;6.588;2024-03-07T00:39:10;1.00;1.00;1.00
67376;PMS7003;54261;46.086;6.588;2024-03-07T00:44:15;1.00;1.00;1.00
67376;PMS7003;54261;46.086;6.588;2024-03-07T00:49:17;2.00;1.00;1.00
67376;PMS7003;54261;46.086;6.588;2024-03-07T00:54:19;2.25;2.25;1.25
67376;PMS7003;54261;46.086;6.588;2024-03-07T00:59:21;0.75;0.75;0.00
67376;PMS7003;54261;46.086;6.588;2024-03-07T01:04:24;1.50;0.50;0.00
67376;PMS7003;54261;46.086;6.588;2024-03-07T01:09:26;1.50;0.25;0.00
67376;PMS7003;54261;46.086;6.588;2024-03-07T01:14:30;1.00;1.00;1.00
67376;PMS7003;54261;46.086;6.588;2024-03-07T01:19:32;1.00;1.00;1.00
67376;PMS7003;54261;46.086;6.588;2024-03-07T01:24:35;3.50;2.00;2.00
67376;PMS7003;54261;46.086;6.588;2024-03-07T01:29:37;2.50;2.50;1.50
67376;PMS7003;54261;46.086;6.588;2024-03-07T01:34:38;3.00;3.00;2.00
67376;PMS7003;54261;46.086;6.588;2024-03-07T01:39:40;2.00;2.00;1.00
67376;PMS7003;54261;46.086;6.588;2024-03-07T01:44:42;4.00;4.00;2.00
67376;PMS7003;54261;46.086;6.588;2024-03-07T01:49:45;1.25;1.25;1.00
67376;PMS7003;54261;46.086;6.588;2024-03-07T01:54:48;4.50;4.50;4.00
67376;PMS7003;54261;46.086;6.588;2024-03-07T01:59:50;4.00;4.00;2.00
67376;PMS7003;54261;46.086;6.588;2024-03-07T02:04:53;5.00;4.25;2.50
67376;PMS7003;54261;46.086;6.588;2024-03-07T02:10:04;1.75;1.75;1.50
67376;PMS7003;54261;46.086;6.588;2024-03-07T02:15:07;4.75;4.00;2.50
67376;PMS7003;54261;46.086;6.588;2024-03-07T02:20:09;4.00;2.00;1.25
67376;PMS7003;54261;46.086;6.588;2024-03-07T02:25:15;6.50;4.00;3.00
67376;PMS7003;54261;46.086;6.588;2024-03-07T02:30:17;5.50;4.00;2.50
67376;PMS7003;54261;46.086;6.588;2024-03-07T02:35:20;5.25;4.50;2.50
67376;PMS7003;54261;46.086;6.588;2024-03-07T02:40:22;4.50;2.50;2.00
67376;PMS7003;54261;46.086;6.588;2024-03-07T02:45:24;3.00;3.00;2.00
67376;PMS7003;54261;46.086;6.588;2024-03-07T02:50:26;2.00;1.50;1.00
67376;PMS7003;54261;46.086;6.588;2024-03-07T02:55:28;2.00;1.00;0.25
67376;PMS7003;54261;46.086;6.588;2024-03-07T03:00:30;1.00;1.00;1.00
67376;PMS7003;54261;46.086;6.588;2024-03-07T03:05:32;2.25;1.25;1.25
67376;PMS7003;54261;46.086;6.588;2024-03-07T03:10:34;1.00;1.00;1.00
67376;PMS7003;54261;46.086;6.588;2024-03-07T03:15:36;4.00;3.00;2.00
67376;PMS7003;54261;46.086;6.588;2024-03-07T03:20:41;5.00;4.00;1.75
67376;PMS7003;54261;46.086;6.588;2024-03-07T03:25:44;2.50;2.00;2.00
67376;PMS7003;54261;46.086;6.588;2024-03-07T03:30:47;4.50;2.00;1.25
67376;PMS7003;54261;46.086;6.588;2024-03-07T03:35:49;1.00;1.00;0.75
67376;PMS7003;54261;46.086;6.588;2024-03-07T03:40:51;1.00;1.00;1.00
67376;PMS7003;54261;46.086;6.588;2024-03-07T03:45:53;1.25;1.00;1.00
67376;PMS7003;54261;46.086;6.588;2024-03-07T03:50:55;2.00;2.00;1.00
67376;PMS7003;54261;46.086;6.588;2024-03-07T03:55:57;2.00;2.00;1.25
67376;PMS7003;54261;46.086;6.588;2024-03-07T04:00:58;1.75;1.75;1.00
67376;PMS7003;54261;46.086;6.588;2024-03-07T04:06:01;1.25;1.25;1.00
67376;PMS7003;54261;46.086;6.588;2024-03-07T04:11:03;0.25;0.25;0.25
67376;PMS7003;54261;46.086;6.588;2024-03-07T04:16:06;3.00;3.00;1.25
67376;PMS7003;54261;46.086;6.588;2024-03-07T04:21:08;4.25;2.50;1.00
67376;PMS7003;54261;46.086;6.588;2024-03-07T04:26:11;1.00;1.00;1.00
67376;PMS7003;54261;46.086;6.588;2024-03-07T04:31:13;7.25;5.50;2.00
67376;PMS7003;54261;46.086;6.588;2024-03-07T04:36:16;2.00;2.00;1.25
67376;PMS7003;54261;46.086;6.588;2024-03-07T04:41:18;2.00;2.00;1.00
67376;PMS7003;54261;46.086;6.588;2024-03-07T04:46:20;5.00;3.50;1.00
67376;PMS7003;54261;46.086;6.588;2024-03-07T04:51:22;2.00;2.00;1.50
67376;PMS7003;54261;46.086;6.588;2024-03-07T04:56:24;3.00;1.50;1.00
67376;PMS7003;54261;46.086;6.588;2024-03-07T05:01:25;1.75;1.75;1.00
67376;PMS7003;54261;46.086;6.588;2024-03-07T05:06:27;1.50;1.50;1.00
67376;PMS7003;54261;46.086;6.588;2024-03-07T05:11:30;4.50;4.50;2.00
67376;PMS7003;54261;46.086;6.588;2024-03-07T05:16:32;5.50;5.50;4.25
67376;PMS7003;54261;46.086;6.588;2024-03-07T05:21:34;2.00;2.00;1.00
67376;PMS7003;54261;46.086;6.588;2024-03-07T05:26:39;3.00;1.00;1.00
67376;PMS7003;54261;46.086;6.588;2024-03-07T05:31:42;2.00;1.00;1.00
67376;PMS7003;54261;46.086;6.588;2024-03-07T05:36:49;1.00;1.00;1.00
67376;PMS7003;54261;46.086;6.588;2024-03-07T05:41:51;1.00;1.00;0.75
67376;PMS7003;54261;46.086;6.588;2024-03-07T05:46:55;4.75;4.25;3.00
67376;PMS7003;54261;46.086;6.588;2024-03-07T05:51:56;19.50;16.75;11.00
67376;PMS7003;54261;46.086;6.588;2024-03-07T05:56:59;7.25;7.25;5.00
67376;PMS7003;54261;46.086;6.588;2024-03-07T06:02:01;3.00;3.00;2.00
67376;PMS7003;54261;46.086;6.588;2024-03-07T06:07:04;11.00;11.00;8.75
67376;PMS7003;54261;46.086;6.588;2024-03-07T06:12:07;4.50;3.00;2.00
67376;PMS7003;54261;46.086;6.588;2024-03-07T06:17:23;13.50;12.00;9.50
67376;PMS7003;54261;46.086;6.588;2024-03-07T06:22:25;11.75;10.00;8.00
67376;PMS7003;54261;46.086;6.588;2024-03-07T06:27:27;7.75;7.00;7.00
67376;PMS7003;54261;46.086;6.588;2024-03-07T06:32:38;4.75;3.50;2.00
67376;PMS7003;54261;46.086;6.588;2024-03-07T06:37:41;1.25;1.00;1.00
67376;PMS7003;54261;46.086;6.588;2024-03-07T06:42:42;2.50;2.50;2.00
67376;PMS7003;54261;46.086;6.588;2024-03-07T06:47:44;1.00;1.00;1.00
67376;PMS7003;54261;46.086;6.588;2024-03-07T06:52:46;0.00;0.00;0.00
67376;PMS7003;54261;46.086;6.588;2024-03-07T06:57:49;1.00;1.00;1.00
67376;PMS7003;54261;46.086;6.588;2024-03-07T07:02:51;4.00;4.00;2.00
67376;PMS7003;54261;46.086;6.588;2024-03-07T07:07:54;1.00;1.00;1.00
67376;PMS7003;54261;46.086;6.588;2024-03-07T07:12:56;6.00;6.00;5.00
67376;PMS7003;54261;46.086;6.588;2024-03-07T07:17:58;0.00;0.00;0.00
67376;PMS7003;54261;46.086;6.588;2024-03-07T07:23:00;0.50;0.00;0.00
67376;PMS7003;54261;46.086;6.588;2024-03-07T07:28:04;3.00;3.00;3.00
67376;PMS7003;54261;46.086;6.588;2024-03-07T07:33:06;1.00;1.00;1.00
67376;PMS7003;54261;46.086;6.588;2024-03-07T07:38:09;0.00;0.00;0.00
67376;PMS7003;54261;46.086;6.588;2024-03-07T07:43:13;0.00;0.00;0.00
67376;PMS7003;54261;46.086;6.588;2024-03-07T07:48:26;0.00;0.00;0.00
67376;PMS7003;54261;46.086;6.588;2024-03-07T07:53:28;0.25;0.25;0.00
67376;PMS7003;54261;46.086;6.588;2024-03-07T07:58:31;1.00;1.00;0.75
67376;PMS7003;54261;46.086;6.588;2024-03-07T08:03:33;0.75;0.00;0.00
67376;PMS7003;54261;46.086;6.588;2024-03-07T08:08:35;2.00;2.00;0.00
67376;PMS7003;54261;46.086;6.588;2024-03-07T08:13:37;0.00;0.00;0.00
67376;PMS7003;54261;46.086;6.588;2024-03-07T08:18:39;0.00;0.00;0.00
67376;PMS7003;54261;46.086;6.588;2024-03-07T08:23:41;1.50;1.50;1.00
67376;PMS7003;54261;46.086;6.588;2024-03-07T08:28:43;0.75;0.75;0.00
67376;PMS7003;54261;46.086;6.588;2024-03-07T08:33:45;5.00;5.00;4.50
67376;PMS7003;54261;46.086;6.588;2024-03-07T08:38:47;1.50;1.00;1.00
67376;PMS7003;54261;46.086;6.588;2024-03-07T08:43:49;1.00;1.00;1.00
67376;PMS7003;54261;46.086;6.588;2024-03-07T08:48:51;7.00;5.25;3.00
67376;PMS7003;54261;46.086;6.588;2024-03-07T08:53:54;3.50;3.50;2.00
67376;PMS7003;54261;46.086;6.588;2024-03-07T08:58:56;3.00;3.00;3.00
67376;PMS7003;54261;46.086;6.588;2024-03-07T09:04:00;6.00;6.00;3.00
67376;PMS7003;54261;46.086;6.588;2024-03-07T09:09:01;3.00;3.00;2.25
67376;PMS7003;54261;46.086;6.588;2024-03-07T09:14:04;2.25;2.25;1.50
67376;PMS7003;54261;46.086;6.588;2024-03-07T09:19:10;8.50;7.25;6.00
67376;PMS7003;54261;46.086;6.588;2024-03-07T09:24:15;7.50;7.50;5.00
67376;PMS7003;54261;46.086;6.588;2024-03-07T09:29:18;8.50;5.50;4.25
67376;PMS7003;54261;46.086;6.588;2024-03-07T09:34:21;9.00;9.00;6.25
67376;PMS7003;54261;46.086;6.588;2024-03-07T09:39:23;12.25;9.50;5.00
67376;PMS7003;54261;46.086;6.588;2024-03-07T09:44:25;6.25;5.50;4.00
67376;PMS7003;54261;46.086;6.588;2024-03-07T09:49:29;5.75;5.75;3.00
67376;PMS7003;54261;46.086;6.588;2024-03-07T09:54:33;15.50;15.50;12.75
67376;PMS7003;54261;46.086;6.588;2024-03-07T09:59:35;5.75;5.75;5.00
67376;PMS7003;54261;46.086;6.588;2024-03-07T10:09:52;6.50;6.50;5.25
67376;PMS7003;54261;46.086;6.588;2024-03-07T10:14:57;7.50;6.50;5.00
67376;PMS7003;54261;46.086;6.588;2024-03-07T10:19:59;2.25;2.25;2.25
67376;PMS7003;54261;46.086;6.588;2024-03-07T10:25:02;8.75;7.50;5.00
67376;PMS7003;54261;46.086;6.588;2024-03-07T10:30:05;10.00;8.50;6.75
67376;PMS7003;54261;46.086;6.588;2024-03-07T10:35:10;10.25;9.50;8.00
67376;PMS7003;54261;46.086;6.588;2024-03-07T10:40:14;9.50;7.75;5.00
67376;PMS7003;54261;46.086;6.588;2024-03-07T10:45:19;6.00;6.00;5.25
67376;PMS7003;54261;46.086;6.588;2024-03-07T10:55:53;7.25;6.50;5.50
67376;PMS7003;54261;46.086;6.588;2024-03-07T11:01:01;9.75;9.75;8.25
67376;PMS7003;54261;46.086;6.588;2024-03-07T11:06:06;8.25;6.75;4.75
67376;PMS7003;54261;46.086;6.588;2024-03-07T11:11:13;9.00;5.00;3.00
67376;PMS7003;54261;46.086;6.588;2024-03-07T11:16:15;6.00;5.75;3.25
67376;PMS7003;54261;46.086;6.588;2024-03-07T11:21:39;6.00;5.00;5.00
67376;PMS7003;54261;46.086;6.588;2024-03-07T11:26:42;2.25;2.00;2.00
67376;PMS7003;54261;46.086;6.588;2024-03-07T11:31:43;6.75;6.75;6.00
67376;PMS7003;54261;46.086;6.588;2024-03-07T11:36:47;6.00;5.50;4.50
67376;PMS7003;54261;46.086;6.588;2024-03-07T11:41:57;3.50;2.25;2.00
67376;PMS7003;54261;46.086;6.588;2024-03-07T11:46:59;5.00;5.00;3.00
67376;PMS7003;54261;46.086;6.588;2024-03-07T11:52:04;5.25;5.25;4.50
67376;PMS7003;54261;46.086;6.588;2024-03-07T11:57:14;3.00;3.00;2.75
67376;PMS7003;54261;46.086;6.588;2024-03-07T12:02:18;6.25;6.25;5.00
67376;PMS7003;54261;46.086;6.588;2024-03-07T12:07:23;5.00;5.00;3.00
67376;PMS7003;54261;46.086;6.588;2024-03-07T12:12:25;4.00;4.00;3.00
67376;PMS7003;54261;46.086;6.588;2024-03-07T12:17:29;4.25;3.25;3.00
67376;PMS7003;54261;46.086;6.588;2024-03-07T12:22:33;2.50;2.50;1.00
67376;PMS7003;54261;46.086;6.588;2024-03-07T12:27:37;9.75;7.75;6.50
67376;PMS7003;54261;46.086;6.588;2024-03-07T12:32:43;5.50;5.50;4.25
67376;PMS7003;54261;46.086;6.588;2024-03-07T12:37:49;4.75;4.50;3.00
67376;PMS7003;54261;46.086;6.588;2024-03-07T12:42:51;6.25;6.25;5.00
67376;PMS7003;54261;46.086;6.588;2024-03-07T12:47:54;7.50;6.50;4.00
67376;PMS7003;54261;46.086;6.588;2024-03-07T12:52:56;6.00;6.00;4.00
67376;PMS7003;54261;46.086;6.588;2024-03-07T12:57:58;6.00;6.00;5.50
67376;PMS7003;54261;46.086;6.588;2024-03-07T13:03:00;5.00;3.25;3.00
67376;PMS7003;54261;46.086;6.588;2024-03-07T13:08:02;7.00;7.00;5.75
67376;PMS7003;54261;46.086;6.588;2024-03-07T13:13:04;6.00;6.00;4.25
67376;PMS7003;54261;46.086;6.588;2024-03-07T13:18:06;8.00;6.75;4.25
67376;PMS7003;54261;46.086;6.588;2024-03-07T13:23:09;6.00;6.00;4.00
67376;PMS7003;54261;46.086;6.588;2024-03-07T13:28:12;8.75;7.75;4.00
67376;PMS7003;54261;46.086;6.588;2024-03-07T13:33:18;5.50;5.00;4.00
67376;PMS7003;54261;46.086;6.588;2024-03-07T13:38:20;6.00;6.00;5.00
67376;PMS7003;54261;46.086;6.588;2024-03-07T13:43:22;5.00;5.00;4.33
67376;PMS7003;54261;46.086;6.588;2024-03-07T13:48:24;9.25;9.25;6.50
67376;PMS7003;54261;46.086;6.588;2024-03-07T13:53:26;7.50;7.50;5.00
67376;PMS7003;54261;46.086;6.588;2024-03-07T14:03:44;5.00;4.75;2.00
67376;PMS7003;54261;46.086;6.588;2024-03-07T14:14:18;6.25;5.75;5.00
67376;PMS7003;54261;46.086;6.588;2024-03-07T14:19:43;5.00;5.00;4.00
67376;PMS7003;54261;46.086;6.588;2024-03-07T14:41:05;5.00;5.00;4.00
67376;PMS7003;54261;46.086;6.588;2024-03-07T14:46:09;5.00;5.00;4.00
67376;PMS7003;54261;46.086;6.588;2024-03-07T14:51:14;7.67;6.67;5.67
67376;PMS7003;54261;46.086;6.588;2024-03-07T14:56:16;6.00;6.00;4.50
67376;PMS7003;54261;46.086;6.588;2024-03-07T15:01:21;5.00;5.00;5.00
67376;PMS7003;54261;46.086;6.588;2024-03-07T15:06:23;5.00;5.00;4.00
67376;PMS7003;54261;46.086;6.588;2024-03-07T15:16:33;6.00;6.00;4.50
67376;PMS7003;54261;46.086;6.588;2024-03-07T15:21:39;11.00;7.00;5.00
67376;PMS7003;54261;46.086;6.588;2024-03-07T15:26:41;5.33;5.33;5.00
67376;PMS7003;54261;46.086;6.588;2024-03-07T15:31:48;6.00;6.00;4.00
67376;PMS7003;54261;46.086;6.588;2024-03-07T15:36:59;3.00;2.67;2.00
67376;PMS7003;54261;46.086;6.588;2024-03-07T15:42:05;6.00;6.00;4.00
67376;PMS7003;54261;46.086;6.588;2024-03-07T15:47:07;3.00;3.00;2.25
67376;PMS7003;54261;46.086;6.588;2024-03-07T15:52:09;5.00;5.00;4.00
67376;PMS7003;54261;46.086;6.588;2024-03-07T15:57:13;5.50;5.50;4.50
67376;PMS7003;54261;46.086;6.588;2024-03-07T16:02:16;3.00;3.00;2.50
67376;PMS7003;54261;46.086;6.588;2024-03-07T16:07:19;17.50;16.25;11.00
67376;PMS7003;54261;46.086;6.588;2024-03-07T16:12:22;3.25;3.25;3.00
67376;PMS7003;54261;46.086;6.588;2024-03-07T16:17:24;6.00;6.00;5.00
67376;PMS7003;54261;46.086;6.588;2024-03-07T16:22:26;8.25;7.75;5.75
67376;PMS7003;54261;46.086;6.588;2024-03-07T16:27:29;7.75;7.75;6.50
67376;PMS7003;54261;46.086;6.588;2024-03-07T16:32:31;5.00;5.00;3.00
67376;PMS7003;54261;46.086;6.588;2024-03-07T16:37:39;12.75;12.00;10.00
67376;PMS7003;54261;46.086;6.588;2024-03-07T16:42:46;4.50;4.50;4.00
67376;PMS7003;54261;46.086;6.588;2024-03-07T16:47:53;4.00;3.00;2.25
67376;PMS7003;54261;46.086;6.588;2024-03-07T16:52:57;10.50;8.00;6.00
67376;PMS7003;54261;46.086;6.588;2024-03-07T16:58:00;6.00;6.00;5.25
67376;PMS7003;54261;46.086;6.588;2024-03-07T17:03:05;6.00;5.25;4.00
67376;PMS7003;54261;46.086;6.588;2024-03-07T17:08:08;4.25;4.25;4.00
67376;PMS7003;54261;46.086;6.588;2024-03-07T17:13:15;5.67;4.67;3.33
67376;PMS7003;54261;46.086;6.588;2024-03-07T17:18:18;7.00;6.00;4.00
67376;PMS7003;54261;46.086;6.588;2024-03-07T17:23:23;5.00;5.00;3.50
67376;PMS7003;54261;46.086;6.588;2024-03-07T17:28:25;7.25;6.00;4.00
67376;PMS7003;54261;46.086;6.588;2024-03-07T17:33:27;6.50;5.25;4.75
67376;PMS7003;54261;46.086;6.588;2024-03-07T17:38:30;4.25;4.25;3.50
67376;PMS7003;54261;46.086;6.588;2024-03-07T17:43:34;5.00;5.00;4.75
67376;PMS7003;54261;46.086;6.588;2024-03-07T17:48:37;5.75;4.50;3.50
67376;PMS7003;54261;46.086;6.588;2024-03-07T17:53:39;6.75;6.75;5.25
67376;PMS7003;54261;46.086;6.588;2024-03-07T17:58:41;5.75;5.75;5.00
67376;PMS7003;54261;46.086;6.588;2024-03-07T18:03:42;4.25;4.25;4.00
67376;PMS7003;54261;46.086;6.588;2024-03-07T18:08:44;4.25;3.75;3.25
67376;PMS7003;54261;46.086;6.588;2024-03-07T18:13:52;6.25;5.00;2.25
67376;PMS7003;54261;46.086;6.588;2024-03-07T18:18:56;7.50;7.50;6.25
67376;PMS7003;54261;46.086;6.588;2024-03-07T18:23:58;6.75;5.25;4.00
67376;PMS7003;54261;46.086;6.588;2024-03-07T18:29:00;3.75;3.00;3.00
67376;PMS7003;54261;46.086;6.588;2024-03-07T18:34:04;5.00;5.00;3.50
67376;PMS7003;54261;46.086;6.588;2024-03-07T18:39:08;8.00;7.00;5.75
67376;PMS7003;54261;46.086;6.588;2024-03-07T18:44:17;7.00;7.00;5.75
67376;PMS7003;54261;46.086;6.588;2024-03-07T18:49:19;5.50;5.50;4.25
67376;PMS7003;54261;46.086;6.588;2024-03-07T18:54:21;6.75;6.50;5.25
67376;PMS7003;54261;46.086;6.588;2024-03-07T18:59:25;7.50;6.50;6.00
67376;PMS7003;54261;46.086;6.588;2024-03-07T19:04:27;7.25;7.25;6.00
67376;PMS7003;54261;46.086;6.588;2024-03-07T19:09:31;6.75;6.75;4.00
67376;PMS7003;54261;46.086;6.588;2024-03-07T19:14:33;7.25;7.25;6.50
67376;PMS7003;54261;46.086;6.588;2024-03-07T19:19:36;8.50;8.50;6.00
67376;PMS7003;54261;46.086;6.588;2024-03-07T19:24:38;8.25;7.25;6.00
67376;PMS7003;54261;46.086;6.588;2024-03-07T19:29:45;6.75;6.25;6.00
67376;PMS7003;54261;46.086;6.588;2024-03-07T19:34:49;6.00;5.25;4.50
67376;PMS7003;54261;46.086;6.588;2024-03-07T19:39:51;7.25;6.50;5.75
67376;PMS7003;54261;46.086;6.588;2024-03-07T19:44:55;3.50;3.00;1.25
67376;PMS7003;54261;46.086;6.588;2024-03-07T19:49:59;5.25;5.25;3.00
67376;PMS7003;54261;46.086;6.588;2024-03-07T19:55:01;3.00;3.00;2.25
67376;PMS7003;54261;46.086;6.588;2024-03-07T20:00:05;7.25;7.25;5.25
67376;PMS7003;54261;46.086;6.588;2024-03-07T20:05:13;5.75;5.75;4.00
67376;PMS7003;54261;46.086;6.588;2024-03-07T20:10:18;6.75;6.50;5.25
67376;PMS7003;54261;46.086;6.588;2024-03-07T20:15:20;6.00;6.00;5.00
67376;PMS7003;54261;46.086;6.588;2024-03-07T20:20:22;9.00;9.00;6.25
67376;PMS7003;54261;46.086;6.588;2024-03-07T20:25:30;10.00;8.75;6.50
67376;PMS7003;54261;46.086;6.588;2024-03-07T20:30:33;10.25;10.00;7.00
67376;PMS7003;54261;46.086;6.588;2024-03-07T20:35:36;10.00;9.00;5.00
67376;PMS7003;54261;46.086;6.588;2024-03-07T20:40:38;9.00;6.25;6.00
67376;PMS7003;54261;46.086;6.588;2024-03-07T20:45:40;10.25;9.00;5.75
67376;PMS7003;54261;46.086;6.588;2024-03-07T20:50:42;7.00;6.00;5.00
67376;PMS7003;54261;46.086;6.588;2024-03-07T20:55:44;8.50;8.50;5.00
67376;PMS7003;54261;46.086;6.588;2024-03-07T21:00:47;10.25;9.25;6.50
67376;PMS7003;54261;46.086;6.588;2024-03-07T21:05:50;7.75;7.75;6.00
67376;PMS7003;54261;46.086;6.588;2024-03-07T21:10:53;9.00;9.00;7.00
67376;PMS7003;54261;46.086;6.588;2024-03-07T21:15:56;12.75;12.75;10.00
67376;PMS7003;54261;46.086;6.588;2024-03-07T21:20:58;11.00;11.00;9.00
67376;PMS7003;54261;46.086;6.588;2024-03-07T21:26:00;9.50;8.25;7.00
67376;PMS7003;54261;46.086;6.588;2024-03-07T21:31:02;8.00;8.00;7.00
67376;PMS7003;54261;46.086;6.588;2024-03-07T21:36:04;11.00;9.75;7.00
67376;PMS7003;54261;46.086;6.588;2024-03-07T21:41:09;15.25;13.25;11.00
67376;PMS7003;54261;46.086;6.588;2024-03-07T21:46:11;38.50;38.25;29.00
67376;PMS7003;54261;46.086;6.588;2024-03-07T21:51:17;42.50;39.75;27.25
67376;PMS7003;54261;46.086;6.588;2024-03-07T21:56:26;60.50;49.50;35.25
67376;PMS7003;54261;46.086;6.588;2024-03-07T22:01:32;38.25;34.50;25.75
67376;PMS7003;54261;46.086;6.588;2024-03-07T22:06:37;26.25;24.75;19.00
67376;PMS7003;54261;46.086;6.588;2024-03-07T22:11:44;24.25;23.25;16.25
67376;PMS7003;54261;46.086;6.588;2024-03-07T22:16:52;22.75;21.50;16.00
67376;PMS7003;54261;46.086;6.588;2024-03-07T22:21:56;24.50;22.25;16.25
67376;PMS7003;54261;46.086;6.588;2024-03-07T22:26:57;23.25;21.25;15.00
67376;PMS7003;54261;46.086;6.588;2024-03-07T22:32:00;33.00;30.00;21.00
67376;PMS7003;54261;46.086;6.588;2024-03-07T22:37:01;27.00;22.75;15.75
67376;PMS7003;54261;46.086;6.588;2024-03-07T22:42:04;30.50;29.00;20.50
67376;PMS7003;54261;46.086;6.588;2024-03-07T22:47:06;26.00;22.25;15.75
67376;PMS7003;54261;46.086;6.588;2024-03-07T22:52:08;26.00;23.50;16.25
67376;PMS7003;54261;46.086;6.588;2024-03-07T22:57:11;28.25;25.75;18.75
67376;PMS7003;54261;46.086;6.588;2024-03-07T23:02:13;21.75;19.75;17.00
67376;PMS7003;54261;46.086;6.588;2024-03-07T23:07:15;31.00;29.75;18.50
67376;PMS7003;54261;46.086;6.588;2024-03-07T23:12:17;29.75;25.75;17.00
67376;PMS7003;54261;46.086;6.588;2024-03-07T23:17:20;28.00;24.50;17.50
67376;PMS7003;54261;46.086;6.588;2024-03-07T23:22:26;24.75;24.75;16.00
67376;PMS7003;54261;46.086;6.588;2024-03-07T23:27:30;23.25;22.00;15.00
67376;PMS7003;54261;46.086;6.588;2024-03-07T23:32:34;25.00;23.75;16.00
67376;PMS7003;54261;46.086;6.588;2024-03-07T23:37:36;30.00;26.00;18.75
67376;PMS7003;54261;46.086;6.588;2024-03-07T23:42:38;26.25;23.25;18.25
67376;PMS7003;54261;46.086;6.588;2024-03-07T23:47:41;25.25;24.00;16.75
67376;PMS7003;54261;46.086;6.588;2024-03-07T23:52:44;32.50;29.50;19.50
67376;PMS7003;54261;46.086;6.588;2024-03-07T23:57:47;34.25;33.00;20.25
